createdAt,value
2022-11-16T00:02:25.442Z,17.98
2022-11-16T00:04:55.107Z,13.25
2022-11-16T00:07:24.761Z,16.98
2022-11-16T00:09:54.368Z,17.73
2022-11-16T00:12:23.970Z,16.05
2022-11-16T00:14:56.149Z,15.52
2022-11-16T00:17:25.757Z,18.90
2022-11-16T00:19:55.291Z,15.73
2022-11-16T00:22:24.850Z,15.63
2022-11-16T00:24:54.431Z,15.05
2022-11-16T00:27:23.992Z,16.95
2022-11-16T00:29:56.130Z,20.13
2022-11-16T00:32:26.084Z,16.20
2022-11-16T00:34:55.858Z,13.93
2022-11-16T00:37:25.396Z,14.07
2022-11-16T00:39:54.949Z,13.43
2022-11-16T00:42:24.599Z,13.30
2022-11-16T00:44:56.989Z,18.05
2022-11-16T00:47:27.356Z,15.02
2022-11-16T00:49:56.901Z,14.40
2022-11-16T00:52:26.475Z,13.65
2022-11-16T00:54:57.138Z,14.88
2022-11-16T00:57:27.002Z,13.80
2022-11-16T00:59:59.201Z,16.67
2022-11-16T01:02:29.244Z,16.25
2022-11-16T01:04:58.979Z,21.42
2022-11-16T01:07:28.655Z,16.33
2022-11-16T01:09:58.199Z,14.90
2022-11-16T01:12:25.183Z,14.85
2022-11-16T01:14:55.157Z,14.82
2022-11-16T01:17:28.125Z,16.13
2022-11-16T01:19:57.855Z,17.02
2022-11-16T01:22:27.428Z,15.18
2022-11-16T01:24:57.060Z,18.00
2022-11-16T01:27:27.647Z,17.00
2022-11-16T01:29:58.423Z,19.13
2022-11-16T01:32:30.689Z,17.27
2022-11-16T01:35:00.364Z,21.13
2022-11-16T01:37:33.655Z,18.08
2022-11-16T01:40:03.943Z,15.60
2022-11-16T01:42:34.563Z,17.50
2022-11-16T01:45:10.876Z,17.80
2022-11-16T01:47:43.236Z,22.35
2022-11-16T01:50:15.725Z,18.50
2022-11-16T01:52:50.621Z,18.67
2022-11-16T01:55:26.640Z,21.00
2022-11-16T01:58:07.708Z,17.50
2022-11-16T02:00:39.285Z,18.20
2022-11-16T02:03:29.407Z,17.65
2022-11-16T02:06:30.520Z,20.40
2022-11-16T02:09:46.712Z,14.65
2022-11-16T02:12:29.932Z,21.55
2022-11-16T02:15:09.364Z,18.90
2022-11-16T02:17:47.248Z,16.17
2022-11-16T02:20:46.937Z,15.75
2022-11-16T02:23:42.724Z,21.05
2022-11-16T02:26:24.797Z,18.05
2022-11-16T02:29:06.996Z,16.98
2022-11-16T02:31:40.803Z,15.90
2022-11-16T02:34:13.211Z,16.05
2022-11-16T02:36:43.549Z,15.90
2022-11-16T02:39:16.420Z,17.75
2022-11-16T02:41:47.127Z,14.98
2022-11-16T02:44:22.440Z,18.77
2022-11-16T02:46:56.858Z,16.98
2022-11-16T02:49:28.268Z,15.80
2022-11-16T02:51:58.556Z,14.70
2022-11-16T02:54:29.272Z,16.60
2022-11-16T02:57:15.140Z,17.52
2022-11-16T02:59:49.156Z,15.88
2022-11-16T03:02:25.491Z,18.33
2022-11-16T03:04:57.815Z,16.20
2022-11-16T03:07:32.151Z,17.00
2022-11-16T03:10:03.356Z,15.63
2022-11-16T03:12:32.159Z,18.10
2022-11-16T03:15:07.271Z,12.07
2022-11-16T03:17:40.908Z,9.75
2022-11-16T03:20:14.623Z,14.18
2022-11-16T03:22:47.508Z,14.40
2022-11-16T03:25:20.101Z,10.75
2022-11-16T03:27:57.433Z,11.27
2022-11-16T03:30:33.248Z,10.25
2022-11-16T03:33:07.072Z,11.70
2022-11-16T03:35:40.195Z,11.93
2022-11-16T03:38:11.180Z,12.93
2022-11-16T03:40:47.012Z,11.50
2022-11-16T03:43:18.040Z,14.15
2022-11-16T03:45:50.393Z,11.73
2022-11-16T03:48:21.524Z,11.35
2022-11-16T03:50:51.396Z,15.55
2022-11-16T03:53:21.896Z,14.00
2022-11-16T03:55:51.570Z,20.98
2022-11-16T03:58:21.296Z,12.75
2022-11-16T04:00:53.667Z,15.00
2022-11-16T04:03:23.593Z,13.95
2022-11-16T04:06:06.367Z,12.98
2022-11-16T04:08:48.522Z,12.48
2022-11-16T04:11:32.328Z,11.45
2022-11-16T04:14:14.390Z,12.83
2022-11-16T04:17:00.490Z,10.37
2022-11-16T04:19:42.554Z,10.02
2022-11-16T04:22:27.762Z,10.23
2022-11-16T04:25:00.320Z,7.50
2022-11-16T04:27:43.997Z,7.38
2022-11-16T04:30:14.967Z,7.05
2022-11-16T04:33:00.077Z,7.43
2022-11-16T04:35:42.468Z,6.65
2022-11-16T04:38:13.006Z,6.15
2022-11-16T04:40:42.895Z,8.93
2022-11-16T04:43:14.805Z,5.95
2022-11-16T04:45:58.819Z,7.15
2022-11-16T04:48:38.501Z,6.13
2022-11-16T04:51:08.388Z,5.90
2022-11-16T04:53:38.544Z,7.90
2022-11-16T04:56:16.939Z,4.72
2022-11-16T04:58:47.047Z,9.45
2022-11-16T05:01:17.236Z,9.85
2022-11-16T05:03:49.640Z,5.10
2022-11-16T05:06:19.234Z,7.25
2022-11-16T05:08:48.771Z,6.55
2022-11-16T05:11:18.495Z,6.90
2022-11-16T05:13:48.085Z,8.68
2022-11-16T05:16:18.054Z,7.65
2022-11-16T05:19:11.028Z,8.32
2022-11-16T05:21:38.581Z,8.73
2022-11-16T05:24:21.692Z,9.55
2022-11-16T05:26:51.230Z,8.88
2022-11-16T05:29:21.156Z,9.15
2022-11-16T05:31:50.978Z,11.23
2022-11-16T05:34:23.843Z,6.53
2022-11-16T05:36:53.425Z,6.65
2022-11-16T05:39:23.048Z,8.13
2022-11-16T05:41:54.788Z,5.63
2022-11-16T05:44:25.745Z,4.85
2022-11-16T05:46:56.198Z,4.30
2022-11-16T05:49:29.059Z,6.70
2022-11-16T05:51:58.726Z,5.63
2022-11-16T05:54:28.676Z,3.65
2022-11-16T05:56:58.403Z,4.60
2022-11-16T05:59:29.973Z,3.03
2022-11-16T06:02:03.974Z,6.22
2022-11-16T06:04:38.190Z,6.40
2022-11-16T06:07:08.001Z,3.20
2022-11-16T06:09:38.771Z,3.67
2022-11-16T06:12:16.559Z,3.10
2022-11-16T06:14:46.788Z,3.55
2022-11-16T06:17:16.990Z,3.08
2022-11-16T06:19:50.445Z,3.53
2022-11-16T06:22:20.047Z,4.68
2022-11-16T06:24:50.120Z,6.82
2022-11-16T06:27:23.024Z,7.40
2022-11-16T06:29:52.966Z,4.43
2022-11-16T06:32:22.549Z,5.05
2022-11-16T06:34:55.425Z,4.40
2022-11-16T06:37:25.077Z,4.32
2022-11-16T06:39:55.305Z,5.47
2022-11-16T06:42:25.729Z,6.20
2022-11-16T06:44:56.688Z,8.00
2022-11-16T06:47:30.710Z,6.57
2022-11-16T06:50:03.839Z,8.10
2022-11-16T06:52:33.515Z,4.63
2022-11-16T06:55:03.250Z,6.25
2022-11-16T06:57:36.794Z,6.10
2022-11-16T07:00:09.204Z,8.20
2022-11-16T07:02:40.347Z,8.80
2022-11-16T07:05:16.224Z,8.07
2022-11-16T07:07:45.747Z,7.30
2022-11-16T07:10:15.702Z,11.80
2022-11-16T07:12:46.002Z,9.85
2022-11-16T07:15:17.120Z,7.57
2022-11-16T07:17:49.624Z,6.53
2022-11-16T07:20:22.875Z,11.30
2022-11-16T07:22:53.721Z,9.25
2022-11-16T07:25:23.280Z,5.72
2022-11-16T07:27:52.898Z,9.65
2022-11-16T07:30:23.305Z,11.30
2022-11-16T07:33:01.870Z,8.30
2022-11-16T07:36:03.708Z,7.95
2022-11-16T07:38:34.630Z,10.25
2022-11-16T07:41:06.243Z,8.93
2022-11-16T07:43:39.910Z,12.80
2022-11-16T07:46:45.143Z,9.15
2022-11-16T07:49:14.347Z,16.52
2022-11-16T07:52:11.103Z,7.38
2022-11-16T07:54:54.489Z,7.03
2022-11-16T07:57:27.197Z,8.35
2022-11-16T07:59:58.672Z,12.15
2022-11-16T08:02:28.465Z,7.00
2022-11-16T08:04:58.503Z,9.25
2022-11-16T08:07:33.096Z,7.28
2022-11-16T08:10:03.169Z,5.45
2022-11-16T08:12:33.227Z,7.78
2022-11-16T08:15:03.049Z,10.00
2022-11-16T08:17:33.252Z,3.85
2022-11-16T08:20:02.870Z,7.88
2022-11-16T08:22:35.207Z,5.70
2022-11-16T08:25:05.263Z,3.97
2022-11-16T08:27:35.291Z,6.25
2022-11-16T08:30:09.754Z,10.35
2022-11-16T08:32:42.188Z,16.48
2022-11-16T08:35:12.361Z,7.38
2022-11-16T08:37:44.538Z,5.50
2022-11-16T08:40:15.163Z,5.40
2022-11-16T08:42:45.686Z,8.00
2022-11-16T08:45:16.073Z,5.68
2022-11-16T08:47:45.681Z,5.57
2022-11-16T08:50:15.334Z,5.50
2022-11-16T08:52:49.082Z,6.72
2022-11-16T08:55:19.286Z,8.65
2022-11-16T08:57:48.871Z,9.23
2022-11-16T09:00:21.805Z,7.60
2022-11-16T09:02:51.792Z,6.35
2022-11-16T09:05:21.480Z,6.80
2022-11-16T09:07:54.164Z,10.13
2022-11-16T09:10:26.074Z,13.30
2022-11-16T09:12:55.824Z,4.30
2022-11-16T09:15:25.365Z,5.82
2022-11-16T09:17:55.240Z,7.82
2022-11-16T09:20:26.454Z,7.80
2022-11-16T09:22:58.569Z,6.38
2022-11-16T09:25:28.171Z,9.57
2022-11-16T09:27:58.055Z,10.60
2022-11-16T09:30:27.577Z,5.93
2022-11-16T09:32:57.132Z,4.68
2022-11-16T09:35:26.666Z,6.35
2022-11-16T09:37:58.874Z,4.93
2022-11-16T09:40:31.848Z,6.97
2022-11-16T09:43:08.280Z,8.93
2022-11-16T09:45:43.707Z,9.60
2022-11-16T09:48:14.811Z,7.05
2022-11-16T09:50:50.655Z,6.30
2022-11-16T09:53:30.337Z,7.07
2022-11-16T09:56:02.706Z,5.60
2022-11-16T09:58:34.988Z,7.30
2022-11-16T10:01:08.553Z,4.70
2022-11-16T10:03:43.341Z,4.40
2022-11-16T10:06:20.182Z,3.60
2022-11-16T10:08:56.618Z,6.00
2022-11-16T10:11:38.305Z,8.93
2022-11-16T10:14:29.976Z,8.00
2022-11-16T10:17:04.791Z,10.98
2022-11-16T10:19:39.954Z,10.32
2022-11-16T10:22:20.554Z,10.15
2022-11-16T10:24:59.707Z,9.60
2022-11-16T10:27:52.756Z,8.82
2022-11-16T10:30:23.605Z,5.90
2022-11-16T10:32:56.205Z,6.32
2022-11-16T10:35:28.800Z,8.07
2022-11-16T10:37:59.512Z,9.20
2022-11-16T10:40:35.157Z,8.50
2022-11-16T10:43:08.685Z,5.55
2022-11-16T10:45:42.235Z,5.57
2022-11-16T10:48:20.134Z,6.22
2022-11-16T10:50:50.875Z,10.15
2022-11-16T10:53:30.144Z,5.93
2022-11-16T10:56:15.959Z,6.43
2022-11-16T10:58:57.567Z,5.13
2022-11-16T11:01:36.383Z,6.57
2022-11-16T11:04:17.247Z,9.65
2022-11-16T11:06:46.948Z,4.65
2022-11-16T11:09:28.763Z,8.35
2022-11-16T11:12:17.269Z,12.33
2022-11-16T11:15:01.454Z,7.32
2022-11-16T11:17:31.956Z,7.68
2022-11-16T11:20:04.072Z,7.88
2022-11-16T11:22:34.664Z,7.00
2022-11-16T11:25:05.180Z,8.27
2022-11-16T11:27:38.180Z,5.03
2022-11-16T11:30:09.305Z,8.45
2022-11-16T11:32:42.348Z,7.15
2022-11-16T11:35:25.636Z,8.63
2022-11-16T11:37:57.336Z,4.93
2022-11-16T11:40:28.243Z,8.77
2022-11-16T11:43:03.286Z,5.47
2022-11-16T11:45:43.539Z,12.88
2022-11-16T11:48:24.611Z,3.67
2022-11-16T11:50:57.031Z,5.43
2022-11-16T11:53:42.242Z,5.60
2022-11-16T11:56:14.608Z,7.65
2022-11-16T11:58:47.203Z,6.72
2022-11-16T12:01:32.531Z,7.90
2022-11-16T12:04:44.224Z,7.93
2022-11-16T12:07:22.193Z,8.30
2022-11-16T12:09:54.891Z,6.07
2022-11-16T12:12:35.387Z,7.80
2022-11-16T12:15:30.116Z,8.95
2022-11-16T12:20:39.531Z,7.05
2022-11-16T12:23:23.093Z,8.43
2022-11-16T12:25:58.893Z,8.90
2022-11-16T12:28:45.004Z,7.68
2022-11-16T12:31:46.088Z,5.28
2022-11-16T12:34:20.881Z,7.22
2022-11-16T12:36:58.519Z,7.20
2022-11-16T12:39:35.080Z,7.22
2022-11-16T12:42:33.588Z,11.68
2022-11-16T12:45:27.583Z,4.47
2022-11-16T12:48:26.406Z,6.40
2022-11-16T12:51:00.539Z,7.43
2022-11-16T12:56:28.222Z,6.47
2022-11-16T12:59:11.750Z,9.27
2022-11-16T13:01:44.627Z,5.03
2022-11-16T13:04:18.968Z,7.05
2022-11-16T13:06:53.882Z,7.25
2022-11-16T13:09:26.674Z,6.20
2022-11-16T13:11:59.692Z,6.90
2022-11-16T13:14:32.838Z,10.38
2022-11-16T13:17:04.270Z,12.17
2022-11-16T13:19:36.648Z,8.90
2022-11-16T13:22:11.709Z,5.70
2022-11-16T13:24:53.726Z,3.33
2022-11-16T13:27:31.821Z,7.05
2022-11-16T13:30:07.033Z,3.78
2022-11-16T13:32:49.468Z,7.63
2022-11-16T13:35:23.117Z,5.20
2022-11-16T13:37:53.477Z,6.05
2022-11-16T13:40:32.242Z,4.90
2022-11-16T13:43:09.767Z,3.92
2022-11-16T13:45:42.926Z,8.30
2022-11-16T13:48:20.705Z,9.27
2022-11-16T13:50:55.188Z,5.43
2022-11-16T13:56:25.610Z,4.70
2022-11-16T13:59:00.445Z,6.20
2022-11-16T14:01:59.825Z,5.68
2022-11-16T14:04:57.908Z,8.15
2022-11-16T14:07:36.346Z,4.90
2022-11-16T14:10:08.386Z,5.40
2022-11-16T14:12:59.210Z,6.88
2022-11-16T14:15:33.775Z,4.32
2022-11-16T14:18:06.299Z,4.90
2022-11-16T14:20:57.780Z,4.57
2022-11-16T14:23:48.131Z,6.25
2022-11-16T14:26:23.366Z,8.45
2022-11-16T14:29:21.708Z,5.95
2022-11-16T14:31:53.592Z,6.05
2022-11-16T14:34:25.600Z,5.78
2022-11-16T14:36:55.719Z,5.28
2022-11-16T14:39:37.858Z,5.03
2022-11-16T14:42:09.951Z,3.47
2022-11-16T14:44:41.609Z,4.90
2022-11-16T14:47:23.497Z,4.75
2022-11-16T14:49:53.515Z,6.65
2022-11-16T14:52:30.779Z,4.22
2022-11-16T14:55:05.620Z,2.20
2022-11-16T14:57:35.307Z,5.53
2022-11-16T15:00:13.966Z,2.88
2022-11-16T15:02:48.105Z,4.40
2022-11-16T15:05:21.875Z,5.78
2022-11-16T15:07:53.753Z,4.90
2022-11-16T15:10:28.027Z,5.68
2022-11-16T15:12:58.936Z,2.17
2022-11-16T15:15:30.343Z,4.63
2022-11-16T15:18:14.991Z,5.10
2022-11-16T15:20:51.158Z,7.03
2022-11-16T15:23:26.245Z,5.53
2022-11-16T15:26:03.581Z,3.92
2022-11-16T15:28:34.406Z,5.00
2022-11-16T15:31:06.607Z,6.03
2022-11-16T15:33:39.197Z,6.72
2022-11-16T15:36:27.298Z,3.00
2022-11-16T15:38:58.315Z,5.30
2022-11-16T15:41:30.774Z,5.80
2022-11-16T15:44:13.874Z,3.58
2022-11-16T15:46:45.729Z,4.43
2022-11-16T15:49:27.757Z,5.35
2022-11-16T15:51:57.408Z,4.80
2022-11-16T15:54:29.167Z,3.88
2022-11-16T15:57:08.637Z,4.10
2022-11-16T15:59:39.878Z,5.75
2022-11-16T16:02:19.463Z,3.35
2022-11-16T16:04:49.068Z,5.30
2022-11-16T16:07:39.194Z,4.82
2022-11-16T16:10:17.333Z,5.55
2022-11-16T16:12:53.281Z,5.20
2022-11-16T16:15:25.424Z,6.28
2022-11-16T16:17:55.810Z,6.85
2022-11-16T16:20:27.288Z,7.55
2022-11-16T16:22:57.008Z,3.80
2022-11-16T16:25:31.672Z,4.57
2022-11-16T16:28:03.987Z,8.60
2022-11-16T16:30:34.796Z,5.97
2022-11-16T16:33:04.569Z,11.05
2022-11-16T16:35:34.083Z,7.40
2022-11-16T16:38:04.119Z,4.28
2022-11-16T16:40:33.627Z,5.55
2022-11-16T16:43:05.754Z,4.90
2022-11-16T16:45:38.896Z,7.22
2022-11-16T16:48:09.432Z,6.32
2022-11-16T16:50:39.004Z,4.93
2022-11-16T16:53:08.714Z,6.70
2022-11-16T16:55:38.336Z,6.38
2022-11-16T16:58:13.275Z,4.57
2022-11-16T17:00:43.095Z,3.83
2022-11-16T17:03:12.920Z,5.50
2022-11-16T17:05:42.546Z,8.13
2022-11-16T17:08:12.148Z,12.15
2022-11-16T17:10:41.864Z,6.03
2022-11-16T17:13:14.613Z,6.35
2022-11-16T17:15:44.148Z,8.15
2022-11-16T17:18:13.751Z,5.82
2022-11-16T17:20:45.518Z,5.72
2022-11-16T17:23:15.323Z,4.15
2022-11-16T17:25:44.997Z,7.85
2022-11-16T17:28:17.151Z,5.88
2022-11-16T17:30:46.732Z,7.47
2022-11-16T17:33:16.290Z,7.57
2022-11-16T17:35:45.843Z,6.78
2022-11-16T17:38:15.378Z,5.15
2022-11-16T17:40:44.898Z,6.97
2022-11-16T17:43:17.051Z,8.45
2022-11-16T17:45:46.572Z,8.73
2022-11-16T17:48:16.168Z,3.80
2022-11-16T17:50:50.002Z,6.65
2022-11-16T17:53:19.638Z,8.93
2022-11-16T17:55:49.177Z,4.82
2022-11-16T17:58:21.450Z,6.88
2022-11-16T18:00:52.219Z,6.10
2022-11-16T18:03:24.064Z,6.93
2022-11-16T18:05:53.857Z,6.18
2022-11-16T18:08:23.439Z,6.97
2022-11-16T18:10:53.015Z,5.30
2022-11-16T18:13:25.196Z,6.68
2022-11-16T18:15:54.749Z,5.60
2022-11-16T18:18:24.273Z,7.45
2022-11-16T18:20:53.846Z,9.57
2022-11-16T18:23:23.429Z,7.43
2022-11-16T18:25:52.979Z,6.60
2022-11-16T18:28:25.184Z,3.78
2022-11-16T18:30:54.968Z,5.18
2022-11-16T18:33:30.276Z,7.18
2022-11-16T18:36:00.191Z,7.43
2022-11-16T18:38:29.733Z,8.32
2022-11-16T18:41:06.859Z,10.35
2022-11-16T18:43:39.009Z,7.25
2022-11-16T18:46:08.570Z,5.10
2022-11-16T18:48:38.163Z,5.53
2022-11-16T18:51:07.984Z,4.90
2022-11-16T18:53:37.966Z,10.20
2022-11-16T18:56:08.571Z,7.03
2022-11-16T18:58:50.948Z,9.52
2022-11-16T19:01:23.571Z,6.17
2022-11-16T19:03:53.946Z,5.82
2022-11-16T19:06:24.595Z,7.75
2022-11-16T19:08:59.865Z,7.85
2022-11-16T19:11:31.094Z,7.35
2022-11-16T19:14:04.282Z,6.13
2022-11-16T19:16:34.201Z,6.67
2022-11-16T19:19:04.060Z,7.05
2022-11-16T19:21:33.665Z,6.50
2022-11-16T19:24:03.188Z,6.00
2022-11-16T19:26:32.707Z,7.82
2022-11-16T19:29:05.320Z,7.32
2022-11-16T19:31:35.800Z,7.68
2022-11-16T19:34:06.676Z,7.57
2022-11-16T19:36:38.184Z,7.93
2022-11-16T19:39:08.517Z,9.95
2022-11-16T19:41:38.075Z,7.45
2022-11-16T19:44:10.235Z,10.43
2022-11-16T19:46:39.877Z,6.53
2022-11-16T19:49:19.494Z,5.40
2022-11-16T19:51:49.779Z,6.75
2022-11-16T19:54:19.316Z,11.20
2022-11-16T19:56:54.658Z,7.18
2022-11-16T19:59:27.240Z,6.90
2022-11-16T20:01:56.775Z,13.43
2022-11-16T20:04:32.050Z,9.18
2022-11-16T20:07:01.732Z,7.50
2022-11-16T20:09:31.476Z,7.05
2022-11-16T20:12:01.021Z,5.78
2022-11-16T20:14:33.196Z,8.98
2022-11-16T20:17:02.797Z,6.68
2022-11-16T20:19:32.315Z,6.10
2022-11-16T20:22:02.195Z,8.65
2022-11-16T20:24:31.711Z,5.30
2022-11-16T20:27:01.289Z,8.18
2022-11-16T20:29:33.450Z,9.65
2022-11-16T20:32:03.034Z,5.82
2022-11-16T20:34:32.583Z,7.30
2022-11-16T20:37:02.135Z,5.63
2022-11-16T20:39:31.697Z,7.55
2022-11-16T20:42:01.722Z,6.82
2022-11-16T20:44:34.054Z,4.70
2022-11-16T20:47:03.582Z,7.10
2022-11-16T20:49:33.212Z,6.13
2022-11-16T20:52:02.750Z,4.35
2022-11-16T20:54:32.799Z,8.60
2022-11-16T20:57:02.340Z,4.75
2022-11-16T20:59:34.565Z,4.60
2022-11-16T21:02:04.132Z,6.68
2022-11-16T21:04:33.650Z,5.50
2022-11-16T21:07:03.230Z,6.60
2022-11-16T21:09:52.774Z,5.78
2022-11-16T21:12:40.066Z,9.25
2022-11-16T21:15:14.955Z,9.18
2022-11-16T21:17:44.482Z,6.90
2022-11-16T21:20:27.333Z,7.55
2022-11-16T21:22:57.838Z,4.53
2022-11-16T21:25:27.563Z,4.55
2022-11-16T21:27:57.431Z,5.75
2022-11-16T21:30:29.576Z,7.22
2022-11-16T21:32:59.188Z,5.80
2022-11-16T21:35:28.800Z,10.50
2022-11-16T21:37:58.588Z,7.55
2022-11-16T21:40:30.996Z,7.22
2022-11-16T21:43:00.545Z,7.68
2022-11-16T21:45:32.700Z,11.70
2022-11-16T21:48:02.234Z,4.82
2022-11-16T21:50:32.518Z,5.05
2022-11-16T21:53:02.362Z,9.43
2022-11-16T21:55:31.899Z,6.85
2022-11-16T21:58:03.479Z,6.75
2022-11-16T22:00:35.676Z,6.22
2022-11-16T22:03:08.040Z,5.68
2022-11-16T22:05:50.059Z,8.75
2022-11-16T22:08:19.767Z,4.80
2022-11-16T22:10:52.535Z,6.60
2022-11-16T22:13:22.707Z,6.28
2022-11-16T22:15:54.881Z,6.55
2022-11-16T22:18:24.426Z,5.28
2022-11-16T22:20:53.995Z,5.10
2022-11-16T22:23:23.988Z,4.95
2022-11-16T22:25:54.185Z,4.68
2022-11-16T22:28:24.111Z,4.28
2022-11-16T22:31:01.858Z,4.32
2022-11-16T22:33:32.571Z,5.38
2022-11-16T22:36:02.793Z,7.43
2022-11-16T22:38:33.641Z,7.07
2022-11-16T22:41:03.207Z,7.32
2022-11-16T22:43:33.998Z,6.78
2022-11-16T22:46:07.601Z,5.95
2022-11-16T22:48:38.612Z,4.22
2022-11-16T22:51:09.589Z,4.88
2022-11-16T22:53:39.303Z,6.50
2022-11-16T22:56:10.550Z,8.60
2022-11-16T22:58:40.736Z,3.58
2022-11-16T23:01:12.998Z,7.47
2022-11-16T23:03:42.907Z,12.32
2022-11-16T23:06:12.519Z,14.75
2022-11-16T23:08:42.626Z,13.65
2022-11-16T23:11:27.474Z,10.30
2022-11-16T23:14:10.125Z,7.35
2022-11-16T23:16:43.184Z,8.18
2022-11-16T23:19:26.787Z,6.97
2022-11-16T23:22:09.390Z,10.23
2022-11-16T23:24:51.653Z,7.82
2022-11-16T23:27:33.204Z,11.82
2022-11-16T23:30:07.963Z,9.55
2022-11-16T23:32:44.506Z,11.25
2022-11-16T23:35:14.396Z,8.23
2022-11-16T23:37:54.826Z,9.23
2022-11-16T23:40:26.179Z,12.27
2022-11-16T23:43:08.647Z,9.70
2022-11-16T23:45:38.227Z,12.98
2022-11-16T23:48:11.510Z,7.30
2022-11-16T23:50:41.486Z,10.17
2022-11-16T23:53:11.733Z,13.80
2022-11-16T23:55:42.079Z,8.85
2022-11-16T23:58:15.781Z,9.60
